メインページ
METAR-TAF:

METAR-TAF

空港 :

プリンスルパート, ブリティッシュコロンビア州, カナダ

緯度: 54-18N, 経度: 130-26W, 海抜: 34m

現時点の気象観測

当レポートは21分前の13:00(UTC)に作成
南/南東の風 7kt、最大15ktの突風を伴う、東/南東から南/南西の間で変化する
気温 6°C
湿度 87%
気圧 1012 hPa
視程: 14.5km
高度2300ftの雲は散在している

METAR: CYPR 201300Z AUTO 16007G15KT 120V210 9SM SCT023 06/04 A2988 RMK SLP122

時間: 05:21 (13:21 UTC)

予報

当レポートは43分前の12:38(UTC)に作成
予報は20日の 13時(UTC)から 21日の 01時(UTC)まで有効
南/南東の風 10kt
視程: 10km
高度1500ftの雲は散在している
高度3000ftの曇り
20日の 13時(UTC)から 21日の 01時(UTC)まで一時的に
視程: 6.4km
高度800ftの雲は散在している
高度1500ftの千切れ雲あり
小雨, 靄

TAF: CYPR 201238Z 2013/2101 16010KT P6SM SCT015 OVC030 TEMPO 2013/2101 4SM -RA BR SCT008 BKN015 RMK FCST BASED ON AUTO OBS. NXT FCST BY 201900Z

4,000以上の空港の気象観測と天気予報(METAR報とTAF報)

利用可能な観測所は地図上に黄色い丸と赤い丸で示す。

丸の上にカーソルを重ねると観測所名を参照できる。

次にクリックすると気象観測と天気予報を参照できる。

マップの切り替え:黒色「×」印の緑ボタンをクリックして拡大、「-」印の緑ボタンをクリックして縮小、緑色の三角印をクリックして隣りの地図に切り替え


METAR-TAF: